createdAt,value
2018-03-14T00:01:22.955Z,88.12
2018-03-14T00:03:50.366Z,88.47
2018-03-14T00:06:17.813Z,88.15
2018-03-14T00:08:45.230Z,87.80
2018-03-14T00:11:12.656Z,87.83
2018-03-14T00:13:40.083Z,87.18
2018-03-14T00:16:07.525Z,87.44
2018-03-14T00:18:34.956Z,87.92
2018-03-14T00:21:02.390Z,87.84
2018-03-14T00:23:29.836Z,88.15
2018-03-14T00:25:57.251Z,88.58
2018-03-14T00:28:24.762Z,88.58
2018-03-14T00:30:52.197Z,89.01
2018-03-14T00:33:19.636Z,88.97
2018-03-14T00:35:47.067Z,89.04
2018-03-14T00:38:14.498Z,89.77
2018-03-14T00:40:58.992Z,90.09
2018-03-14T00:43:26.436Z,90.12
2018-03-14T00:45:53.871Z,90.19
2018-03-14T00:48:21.304Z,90.10
2018-03-14T00:50:48.727Z,90.32
2018-03-14T00:53:16.165Z,90.25
2018-03-14T00:55:43.588Z,89.85
2018-03-14T00:58:11.075Z,90.25
2018-03-14T01:00:38.582Z,90.33
2018-03-14T01:03:06.046Z,90.54
2018-03-14T01:05:33.477Z,90.49
2018-03-14T01:08:00.931Z,90.55
2018-03-14T01:10:28.411Z,90.37
2018-03-14T01:12:55.860Z,90.35
2018-03-14T01:15:23.334Z,90.42
2018-03-14T01:18:07.353Z,90.33
2018-03-14T01:20:34.796Z,89.96
2018-03-14T01:23:02.223Z,89.47
2018-03-14T01:25:29.768Z,89.84
2018-03-14T01:27:57.518Z,89.77
2018-03-14T01:30:24.943Z,89.04
2018-03-14T01:32:52.380Z,89.36
2018-03-14T01:35:19.891Z,88.98
2018-03-14T01:37:47.331Z,88.88
2018-03-14T01:40:14.817Z,89.05
2018-03-14T01:42:42.258Z,88.89
2018-03-14T01:45:09.715Z,88.70
2018-03-14T01:47:37.276Z,88.89
2018-03-14T01:50:04.712Z,88.40
2018-03-14T01:52:32.146Z,88.47
2018-03-14T01:54:59.860Z,88.70
2018-03-14T01:57:27.312Z,88.95
2018-03-14T01:59:54.772Z,88.71
2018-03-14T02:02:22.203Z,88.63
2018-03-14T02:04:49.646Z,88.97
2018-03-14T02:07:17.071Z,88.91
2018-03-14T02:09:44.511Z,89.24
2018-03-14T02:12:11.983Z,89.27
2018-03-14T02:14:39.431Z,89.51
2018-03-14T02:17:07.076Z,89.77
2018-03-14T02:19:34.688Z,89.90
2018-03-14T02:22:02.184Z,89.65
2018-03-14T02:24:29.946Z,89.49
2018-03-14T02:27:00.829Z,89.29
2018-03-14T02:29:28.254Z,89.28
2018-03-14T02:31:55.955Z,89.40
2018-03-14T02:34:23.696Z,89.56
2018-03-14T02:37:01.852Z,89.63
2018-03-14T02:39:29.389Z,89.61
2018-03-14T02:41:56.845Z,89.63
2018-03-14T02:44:24.363Z,89.67
2018-03-14T02:46:51.847Z,89.50
2018-03-14T02:49:19.589Z,89.32
2018-03-14T02:51:47.043Z,89.91
2018-03-14T02:54:14.501Z,89.71
2018-03-14T02:56:41.927Z,89.68
2018-03-14T02:59:09.434Z,89.41
2018-03-14T03:01:36.988Z,89.67
2018-03-14T03:04:04.437Z,89.78
2018-03-14T03:06:31.898Z,89.97
2018-03-14T03:08:59.316Z,89.41
2018-03-14T03:11:26.751Z,89.25
2018-03-14T03:13:54.179Z,89.41
2018-03-14T03:16:21.919Z,89.61
2018-03-14T03:18:49.392Z,89.31
2018-03-14T03:21:16.849Z,89.59
2018-03-14T03:23:44.296Z,89.22
2018-03-14T03:26:11.770Z,88.98
2018-03-14T03:28:39.238Z,88.63
2018-03-14T03:31:06.700Z,88.63
2018-03-14T03:33:34.127Z,88.70
2018-03-14T03:36:01.567Z,88.56
2018-03-14T03:38:29.067Z,88.46
2018-03-14T03:40:56.803Z,88.41
2018-03-14T03:43:24.292Z,88.35
2018-03-14T03:45:51.834Z,88.21
2018-03-14T03:48:19.811Z,88.23
2018-03-14T03:50:47.297Z,88.46
2018-03-14T03:53:14.717Z,88.83
2018-03-14T03:55:45.060Z,88.78
2018-03-14T03:58:12.498Z,88.56
2018-03-14T04:00:40.214Z,88.45
2018-03-14T04:03:07.630Z,88.84
2018-03-14T04:05:35.083Z,88.90
2018-03-14T04:08:02.526Z,88.77
2018-03-14T04:10:29.939Z,88.69
2018-03-14T04:12:58.397Z,88.78
2018-03-14T04:15:25.896Z,88.65
2018-03-14T04:17:56.161Z,88.76
2018-03-14T04:20:23.582Z,88.57
2018-03-14T04:22:51.015Z,88.35
2018-03-14T04:25:18.447Z,88.52
2018-03-14T04:27:45.871Z,88.39
2018-03-14T04:30:13.343Z,87.85
2018-03-14T04:32:40.806Z,87.58
2018-03-14T04:35:08.263Z,87.53
2018-03-14T04:37:35.697Z,87.53
2018-03-14T04:40:03.115Z,87.65
2018-03-14T04:42:30.610Z,87.81
2018-03-14T04:44:58.023Z,87.62
2018-03-14T04:47:25.451Z,87.99
2018-03-14T04:49:52.862Z,87.65
2018-03-14T04:52:20.468Z,87.33
2018-03-14T04:54:47.930Z,87.34
2018-03-14T04:57:15.696Z,87.47
2018-03-14T04:59:43.427Z,88.03
2018-03-14T05:02:10.851Z,88.86
2018-03-14T05:04:38.267Z,88.88
2018-03-14T05:07:05.687Z,88.84
2018-03-14T05:09:33.105Z,88.93
2018-03-14T05:12:00.537Z,88.49
2018-03-14T05:14:27.993Z,88.21
2018-03-14T05:19:48.331Z,88.15
2018-03-14T05:22:15.774Z,87.80
2018-03-14T05:24:43.382Z,87.78
2018-03-14T05:27:10.799Z,87.79
2018-03-14T05:29:38.244Z,88.01
2018-03-14T05:32:08.017Z,88.39
2018-03-14T05:34:35.453Z,88.62
2018-03-14T05:37:03.355Z,88.80
2018-03-14T05:39:30.830Z,89.01
2018-03-14T05:41:58.249Z,88.61
2018-03-14T05:44:25.776Z,88.62
2018-03-14T05:46:54.654Z,88.68
2018-03-14T05:49:22.101Z,88.83
2018-03-14T05:51:49.544Z,88.82
2018-03-14T05:54:17.027Z,88.92
2018-03-14T05:56:44.679Z,88.90
2018-03-14T05:59:12.123Z,89.11
2018-03-14T06:01:39.533Z,89.05
2018-03-14T06:04:06.963Z,88.76
2018-03-14T06:06:34.402Z,88.67
2018-03-14T06:09:01.860Z,88.51
2018-03-14T06:11:29.282Z,88.58
2018-03-14T06:13:56.723Z,88.51
2018-03-14T06:16:24.224Z,88.27
2018-03-14T06:18:51.624Z,88.07
2018-03-14T06:21:19.975Z,88.03
2018-03-14T06:23:47.451Z,88.30
2018-03-14T06:26:14.893Z,88.75
2018-03-14T06:28:42.354Z,89.00
2018-03-14T06:31:09.811Z,89.08
2018-03-14T06:33:37.271Z,89.18
2018-03-14T06:36:07.449Z,89.27
2018-03-14T06:38:34.951Z,88.92
2018-03-14T06:41:02.412Z,88.78
2018-03-14T06:43:29.871Z,87.39
2018-03-14T06:45:59.480Z,86.75
2018-03-14T06:48:26.927Z,86.72
2018-03-14T06:50:54.386Z,85.99
2018-03-14T06:53:21.847Z,85.25
2018-03-14T06:55:49.309Z,85.26
2018-03-14T06:58:28.447Z,85.09
2018-03-14T07:01:07.454Z,85.05
2018-03-14T07:03:46.488Z,84.44
2018-03-14T07:06:15.240Z,83.64
2018-03-14T07:08:42.655Z,82.41
2018-03-14T07:11:10.097Z,81.40
2018-03-14T07:13:37.559Z,80.95
2018-03-14T07:16:05.013Z,80.35
2018-03-14T07:18:32.459Z,80.45
2018-03-14T07:20:59.923Z,79.69
2018-03-14T07:23:27.373Z,80.09
2018-03-14T07:25:54.831Z,79.75
2018-03-14T07:28:22.244Z,79.42
2018-03-14T07:30:49.677Z,77.87
2018-03-14T07:33:17.136Z,77.03
2018-03-14T07:35:44.593Z,76.43
2018-03-14T07:38:12.053Z,77.18
2018-03-14T07:40:39.515Z,77.45
2018-03-14T07:43:07.345Z,75.54
2018-03-14T07:45:34.800Z,76.92
2018-03-14T07:48:02.259Z,75.38
2018-03-14T07:50:29.716Z,76.97
2018-03-14T07:52:57.174Z,76.55
2018-03-14T07:55:24.631Z,74.05
2018-03-14T07:57:52.094Z,72.65
2018-03-14T08:00:19.558Z,72.42
2018-03-14T08:02:49.462Z,70.13
2018-03-14T08:05:16.919Z,69.97
2018-03-14T08:07:44.431Z,69.61
2018-03-14T08:10:11.840Z,68.96
2018-03-14T08:12:39.295Z,68.23
2018-03-14T08:15:10.441Z,69.24
2018-03-14T08:17:37.900Z,69.13
2018-03-14T08:20:05.353Z,67.89
2018-03-14T08:22:32.814Z,67.23
2018-03-14T08:25:00.335Z,67.62
2018-03-14T08:27:27.734Z,66.26
2018-03-14T08:29:55.197Z,67.56
2018-03-14T08:32:22.642Z,67.29
2018-03-14T08:34:50.178Z,67.85
2018-03-14T08:37:17.606Z,65.96
2018-03-14T08:39:45.036Z,64.43
2018-03-14T08:42:12.479Z,64.62
2018-03-14T08:44:39.932Z,65.28
2018-03-14T08:47:07.391Z,62.58
2018-03-14T08:49:34.847Z,65.47
2018-03-14T08:52:02.306Z,63.07
2018-03-14T08:54:29.727Z,61.64
2018-03-14T08:56:57.162Z,63.44
2018-03-14T08:59:24.608Z,62.45
2018-03-14T09:01:54.763Z,59.91
2018-03-14T09:04:22.271Z,60.16
2018-03-14T09:06:49.755Z,57.16
2018-03-14T09:09:18.201Z,56.86
2018-03-14T09:11:45.663Z,57.96
2018-03-14T09:14:13.111Z,54.91
2018-03-14T09:16:40.570Z,57.98
2018-03-14T09:19:08.029Z,55.07
2018-03-14T09:21:36.883Z,55.84
2018-03-14T09:24:04.384Z,56.23
2018-03-14T09:26:31.839Z,52.79
2018-03-14T09:28:59.306Z,53.81
2018-03-14T09:31:26.783Z,52.92
2018-03-14T09:33:57.934Z,55.50
2018-03-14T09:36:25.406Z,53.59
2018-03-14T09:38:52.850Z,55.52
2018-03-14T09:41:20.306Z,53.15
2018-03-14T09:43:47.765Z,55.58
2018-03-14T09:46:15.222Z,54.83
2018-03-14T09:48:42.681Z,54.68
2018-03-14T09:51:10.127Z,51.84
2018-03-14T09:53:37.587Z,53.57
2018-03-14T09:56:05.036Z,52.02
2018-03-14T09:58:32.510Z,52.13
2018-03-14T10:00:59.964Z,53.14
2018-03-14T10:03:27.488Z,54.64
2018-03-14T10:05:54.954Z,52.76
2018-03-14T10:08:22.404Z,53.72
2018-03-14T10:10:49.811Z,52.60
2018-03-14T10:13:17.239Z,54.88
2018-03-14T10:15:44.692Z,52.65
2018-03-14T10:18:12.191Z,54.32
2018-03-14T10:20:39.622Z,53.35
2018-03-14T10:23:08.669Z,56.37
2018-03-14T10:25:36.801Z,54.58
2018-03-14T10:28:04.217Z,54.30
2018-03-14T10:30:31.676Z,56.74
2018-03-14T10:32:59.104Z,56.56
2018-03-14T10:35:26.534Z,54.17
2018-03-14T10:37:53.965Z,53.73
2018-03-14T10:40:21.448Z,53.39
2018-03-14T10:42:52.695Z,54.19
2018-03-14T10:45:20.116Z,53.35
2018-03-14T10:47:47.567Z,53.43
2018-03-14T10:50:15.024Z,53.33
2018-03-14T10:52:42.485Z,54.12
2018-03-14T10:55:09.942Z,56.09
2018-03-14T10:57:37.400Z,54.35
2018-03-14T11:00:05.698Z,54.15
2018-03-14T11:02:33.247Z,54.78
2018-03-14T11:05:00.692Z,55.48
2018-03-14T11:07:28.096Z,55.03
2018-03-14T11:09:55.547Z,54.68
2018-03-14T11:12:23.002Z,53.75
2018-03-14T11:14:50.523Z,53.73
2018-03-14T11:17:17.986Z,55.44
2018-03-14T11:19:45.438Z,55.12
2018-03-14T11:22:12.899Z,54.99
2018-03-14T11:24:40.353Z,53.25
2018-03-14T11:27:07.816Z,52.95
2018-03-14T11:29:35.270Z,53.27
2018-03-14T11:32:02.740Z,53.79
2018-03-14T11:34:30.187Z,53.03
2018-03-14T11:36:57.644Z,53.03
2018-03-14T11:39:25.277Z,52.91
2018-03-14T11:41:53.174Z,52.64
2018-03-14T11:44:20.631Z,51.69
2018-03-14T11:46:48.089Z,50.98
2018-03-14T11:49:15.549Z,49.78
2018-03-14T11:51:43.005Z,49.19
2018-03-14T11:54:10.463Z,49.82
2018-03-14T11:56:37.920Z,51.05
2018-03-14T11:59:05.380Z,53.80
2018-03-14T12:01:32.837Z,49.94
2018-03-14T12:04:05.530Z,48.81
2018-03-14T12:06:33.005Z,50.69
2018-03-14T12:09:00.432Z,47.75
2018-03-14T12:11:31.598Z,51.11
2018-03-14T12:13:59.038Z,49.39
2018-03-14T12:16:26.492Z,48.60
2018-03-14T12:18:53.894Z,48.02
2018-03-14T12:21:21.331Z,48.40
2018-03-14T12:23:48.797Z,48.52
2018-03-14T12:26:16.334Z,49.44
2018-03-14T12:28:43.793Z,49.45
2018-03-14T12:31:11.243Z,49.68
2018-03-14T12:33:38.696Z,49.93
2018-03-14T12:36:06.156Z,50.77
2018-03-14T12:38:33.612Z,49.64
2018-03-14T12:41:01.083Z,50.02
2018-03-14T12:43:31.812Z,49.81
2018-03-14T12:45:59.296Z,49.03
2018-03-14T12:48:26.729Z,50.70
2018-03-14T12:50:54.203Z,48.98
2018-03-14T12:53:21.736Z,51.32
2018-03-14T12:55:52.269Z,46.40
2018-03-14T12:58:19.726Z,47.38
2018-03-14T13:00:47.182Z,47.87
2018-03-14T13:03:14.721Z,47.85
2018-03-14T13:05:42.120Z,47.67
2018-03-14T13:08:12.244Z,48.52
2018-03-14T13:10:39.778Z,48.60
2018-03-14T13:13:07.236Z,48.80
2018-03-14T13:15:34.694Z,49.01
2018-03-14T13:18:02.165Z,48.65
2018-03-14T13:20:29.612Z,50.30
2018-03-14T13:22:57.068Z,49.00
2018-03-14T13:25:24.527Z,50.35
2018-03-14T13:27:51.985Z,49.21
2018-03-14T13:30:19.444Z,50.85
2018-03-14T13:32:48.507Z,49.59
2018-03-14T13:35:16.816Z,50.67
2018-03-14T13:37:44.279Z,50.54
2018-03-14T13:40:11.737Z,51.12
2018-03-14T13:42:39.187Z,52.27
2018-03-14T13:45:06.647Z,54.47
2018-03-14T13:47:34.123Z,53.77
2018-03-14T13:50:01.564Z,53.90
2018-03-14T13:52:29.020Z,53.17
2018-03-14T13:54:58.842Z,52.25
2018-03-14T13:57:26.393Z,52.66
2018-03-14T13:59:53.849Z,51.29
2018-03-14T14:02:21.308Z,52.00
2018-03-14T14:04:48.783Z,51.79
2018-03-14T14:07:16.225Z,52.05
2018-03-14T14:09:43.698Z,51.29
2018-03-14T14:12:11.132Z,50.74
2018-03-14T14:14:38.598Z,51.13
2018-03-14T14:17:06.056Z,52.43
2018-03-14T14:19:33.820Z,52.18
2018-03-14T14:22:01.246Z,52.30
2018-03-14T14:24:28.741Z,50.13
2018-03-14T14:26:56.203Z,50.50
2018-03-14T14:29:23.684Z,50.78
2018-03-14T14:31:51.109Z,49.79
2018-03-14T14:34:18.567Z,50.53
2018-03-14T14:36:46.025Z,50.71
2018-03-14T14:39:13.483Z,49.54
2018-03-14T14:41:40.943Z,50.38
2018-03-14T14:44:08.414Z,50.86
2018-03-14T14:46:36.033Z,52.55
2018-03-14T14:49:03.623Z,52.00
2018-03-14T14:51:34.053Z,52.68
2018-03-14T14:54:01.583Z,53.43
2018-03-14T14:56:29.069Z,52.79
2018-03-14T14:58:56.524Z,53.04
2018-03-14T15:01:23.985Z,54.54
2018-03-14T15:03:52.671Z,53.51
2018-03-14T15:06:20.144Z,53.74
2018-03-14T15:08:48.070Z,53.14
2018-03-14T15:11:15.574Z,52.47
2018-03-14T15:13:46.801Z,51.85
2018-03-14T15:16:14.251Z,52.96
2018-03-14T15:18:41.716Z,52.32
2018-03-14T15:21:09.230Z,51.66
2018-03-14T15:23:36.644Z,51.35
2018-03-14T15:26:04.094Z,51.88
2018-03-14T15:28:31.553Z,51.87
2018-03-14T15:31:03.647Z,51.91
2018-03-14T15:33:31.388Z,51.93
2018-03-14T15:36:00.689Z,53.48
2018-03-14T15:38:30.786Z,52.65
2018-03-14T15:41:06.401Z,55.12
2018-03-14T15:43:33.824Z,53.90
2018-03-14T15:46:01.273Z,53.74
2018-03-14T15:48:29.067Z,54.58
2018-03-14T15:50:56.915Z,54.84
2018-03-14T15:53:25.004Z,55.11
2018-03-14T15:55:52.455Z,53.12
2018-03-14T15:58:20.151Z,54.73
2018-03-14T16:00:47.579Z,53.66
2018-03-14T16:03:15.128Z,54.65
2018-03-14T16:05:42.680Z,54.23
2018-03-14T16:08:10.102Z,54.17
2018-03-14T16:10:37.531Z,53.75
2018-03-14T16:13:04.987Z,53.72
2018-03-14T16:15:32.428Z,52.74
2018-03-14T16:17:59.871Z,53.16
2018-03-14T16:20:27.299Z,54.78
2018-03-14T16:22:54.883Z,53.92
2018-03-14T16:25:22.300Z,53.59
2018-03-14T16:27:49.732Z,54.35
2018-03-14T16:30:17.164Z,54.55
2018-03-14T16:32:44.599Z,53.79
2018-03-14T16:35:12.017Z,54.94
2018-03-14T16:37:39.436Z,54.91
2018-03-14T16:40:06.848Z,55.92
2018-03-14T16:42:34.291Z,56.11
2018-03-14T16:45:01.908Z,55.25
2018-03-14T16:47:29.356Z,56.08
2018-03-14T16:49:56.773Z,57.55
2018-03-14T16:52:24.206Z,57.48
2018-03-14T16:54:51.625Z,58.00
2018-03-14T16:57:19.058Z,58.62
2018-03-14T16:59:46.488Z,58.63
2018-03-14T17:02:13.903Z,59.66
2018-03-14T17:04:41.328Z,60.35
2018-03-14T17:07:14.749Z,60.45
2018-03-14T17:09:42.229Z,59.91
2018-03-14T17:12:09.658Z,60.82
2018-03-14T17:14:37.099Z,61.21
2018-03-14T17:17:04.505Z,62.18
2018-03-14T17:19:31.914Z,62.95
2018-03-14T17:22:02.723Z,62.96
2018-03-14T17:24:30.152Z,62.76
2018-03-14T17:26:57.687Z,62.67
2018-03-14T17:29:25.139Z,62.77
2018-03-14T17:31:52.539Z,62.88
2018-03-14T17:34:19.976Z,63.42
2018-03-14T17:36:47.386Z,64.49
2018-03-14T17:39:14.844Z,64.62
2018-03-14T17:41:42.252Z,64.76
2018-03-14T17:44:09.693Z,64.74
2018-03-14T17:46:37.114Z,65.05
2018-03-14T17:49:04.557Z,65.51
2018-03-14T17:51:32.561Z,65.51
2018-03-14T17:53:59.989Z,66.07
2018-03-14T17:56:27.412Z,66.03
2018-03-14T17:58:54.848Z,66.01
2018-03-14T18:01:22.272Z,66.22
2018-03-14T18:03:49.695Z,66.63
2018-03-14T18:06:17.116Z,66.48
2018-03-14T18:08:44.570Z,66.57
2018-03-14T18:11:11.990Z,66.78
2018-03-14T18:13:39.404Z,66.87
2018-03-14T18:16:06.865Z,66.77
2018-03-14T18:18:34.307Z,67.07
2018-03-14T18:21:02.869Z,67.02
2018-03-14T18:23:30.457Z,67.05
2018-03-14T18:25:57.887Z,67.26
2018-03-14T18:28:25.516Z,67.08
2018-03-14T18:30:52.937Z,67.33
2018-03-14T18:33:20.384Z,67.57
2018-03-14T18:35:47.839Z,67.97
2018-03-14T18:38:15.260Z,68.50
2018-03-14T18:40:42.679Z,69.85
2018-03-14T18:43:10.179Z,70.48
2018-03-14T18:45:37.606Z,70.94
2018-03-14T18:48:05.088Z,71.44
2018-03-14T18:50:32.499Z,71.88
2018-03-14T18:52:59.961Z,72.52
2018-03-14T18:55:27.395Z,72.72
2018-03-14T18:57:54.831Z,72.93
2018-03-14T19:00:22.298Z,73.06
2018-03-14T19:02:49.705Z,73.39
2018-03-14T19:05:17.221Z,73.78
2018-03-14T19:07:44.641Z,74.00
2018-03-14T19:10:12.063Z,73.94
2018-03-14T19:12:39.475Z,73.59
2018-03-14T19:15:06.894Z,73.58
2018-03-14T19:17:34.305Z,73.06
2018-03-14T19:20:01.719Z,72.97
2018-03-14T19:22:29.464Z,73.04
2018-03-14T19:24:56.883Z,73.22
2018-03-14T19:27:24.311Z,73.19
2018-03-14T19:29:51.817Z,73.22
2018-03-14T19:32:19.270Z,73.66
2018-03-14T19:34:46.680Z,73.88
2018-03-14T19:37:14.192Z,74.90
2018-03-14T19:39:41.687Z,74.85
2018-03-14T19:42:09.120Z,74.82
2018-03-14T19:44:36.556Z,74.68
2018-03-14T19:47:03.984Z,74.85
2018-03-14T19:49:31.407Z,74.76
2018-03-14T19:51:58.945Z,74.82
2018-03-14T19:54:26.374Z,75.08
2018-03-14T19:56:53.827Z,75.11
2018-03-14T19:59:21.264Z,75.48
2018-03-14T20:01:48.690Z,74.73
2018-03-14T20:04:16.133Z,74.43
2018-03-14T20:06:43.570Z,74.09
2018-03-14T20:09:10.993Z,73.48
2018-03-14T20:11:38.415Z,73.36
2018-03-14T20:14:05.834Z,72.88
2018-03-14T20:16:33.262Z,72.91
2018-03-14T20:19:00.696Z,72.98
2018-03-14T20:21:28.135Z,72.69
2018-03-14T20:23:55.949Z,73.11
2018-03-14T20:26:23.385Z,72.94
2018-03-14T20:28:50.802Z,73.24
2018-03-14T20:31:20.213Z,73.31
2018-03-14T20:33:47.835Z,73.61
2018-03-14T20:36:15.283Z,74.19
2018-03-14T20:38:42.754Z,74.31
2018-03-14T20:41:10.185Z,74.65
2018-03-14T20:43:37.658Z,75.41
2018-03-14T20:46:05.099Z,75.63
2018-03-14T20:48:32.567Z,75.69
2018-03-14T20:51:00.055Z,75.62
2018-03-14T20:53:27.532Z,75.94
2018-03-14T20:55:54.988Z,75.78
2018-03-14T20:58:22.468Z,75.74
2018-03-14T21:00:50.212Z,76.36
2018-03-14T21:03:17.700Z,75.57
2018-03-14T21:05:45.132Z,76.04
2018-03-14T21:08:37.694Z,76.20
2018-03-14T21:11:05.216Z,76.61
2018-03-14T21:13:32.696Z,76.96
2018-03-14T21:16:01.711Z,77.43
2018-03-14T21:18:29.158Z,77.89
2018-03-14T21:21:16.778Z,78.15
2018-03-14T21:23:44.197Z,78.44
2018-03-14T21:26:11.620Z,80.09
2018-03-14T21:28:39.055Z,80.53
2018-03-14T21:31:06.575Z,80.99
2018-03-14T21:33:33.915Z,80.98
2018-03-14T21:36:01.348Z,81.35
2018-03-14T21:38:28.787Z,81.54
2018-03-14T21:40:58.113Z,81.87
2018-03-14T21:43:25.526Z,82.55
2018-03-14T21:45:52.950Z,82.80
2018-03-14T21:48:20.358Z,82.68
2018-03-14T21:50:47.776Z,82.57
2018-03-14T21:53:15.190Z,82.19
2018-03-14T21:55:42.607Z,81.46
2018-03-14T21:58:10.019Z,80.54
2018-03-14T22:02:40.479Z,80.05
2018-03-14T22:05:07.889Z,79.65
2018-03-14T22:07:35.303Z,79.29
2018-03-14T22:10:02.714Z,79.16
2018-03-14T22:12:30.125Z,79.12
2018-03-14T22:14:57.544Z,79.32
2018-03-14T22:17:24.959Z,79.63
2018-03-14T22:19:52.388Z,79.96
2018-03-14T22:22:19.778Z,79.98
2018-03-14T22:24:47.197Z,80.23
2018-03-14T22:27:14.674Z,79.99
2018-03-14T22:29:42.123Z,80.11
2018-03-14T22:32:09.525Z,79.97
2018-03-14T22:34:36.942Z,79.94
2018-03-14T22:37:04.395Z,79.61
2018-03-14T22:39:31.772Z,79.72
2018-03-14T22:41:59.183Z,79.53
2018-03-14T22:44:26.593Z,79.77
2018-03-14T22:46:53.997Z,79.50
2018-03-14T22:49:21.417Z,79.21
2018-03-14T22:51:48.826Z,78.85
2018-03-14T22:54:16.248Z,78.58
2018-03-14T22:56:43.650Z,78.48
2018-03-14T22:59:11.049Z,78.70
2018-03-14T23:01:38.470Z,78.57
2018-03-14T23:04:05.874Z,78.34
2018-03-14T23:06:33.287Z,78.53
2018-03-14T23:09:01.183Z,78.59
2018-03-14T23:11:28.595Z,78.95
2018-03-14T23:13:55.999Z,79.35
2018-03-14T23:16:23.411Z,79.80
2018-03-14T23:18:50.822Z,80.10
2018-03-14T23:21:18.242Z,80.55
2018-03-14T23:23:45.686Z,80.67
2018-03-14T23:26:13.094Z,81.23
2018-03-14T23:28:40.502Z,81.56
2018-03-14T23:31:07.928Z,81.97
2018-03-14T23:33:35.371Z,82.13
2018-03-14T23:36:02.782Z,81.96
2018-03-14T23:38:30.199Z,81.67
2018-03-14T23:40:57.610Z,81.76
2018-03-14T23:43:25.014Z,81.83
2018-03-14T23:45:52.429Z,82.21
2018-03-14T23:48:19.842Z,82.69
2018-03-14T23:50:47.266Z,82.98
2018-03-14T23:53:14.670Z,83.33
2018-03-14T23:55:42.094Z,83.45
2018-03-14T23:58:09.505Z,83.94
